createdAt,value
2017-08-19T00:00:18.554Z,979
2017-08-19T00:01:20.698Z,979.1
2017-08-19T00:02:23.185Z,979.1
2017-08-19T00:03:25.383Z,979.1
2017-08-19T00:04:27.540Z,979.2
2017-08-19T00:05:29.625Z,979.2
2017-08-19T00:06:31.762Z,979.2
2017-08-19T00:07:34.259Z,979.2
2017-08-19T00:08:36.547Z,979.2
2017-08-19T00:09:38.677Z,979.2
2017-08-19T00:10:40.793Z,979.1
2017-08-19T00:11:43.463Z,979.2
2017-08-19T00:12:45.870Z,979.2
2017-08-19T00:13:48.054Z,979.2
2017-08-19T00:14:50.225Z,979.2
2017-08-19T00:15:52.365Z,979.2
2017-08-19T00:16:54.483Z,979.2
2017-08-19T00:17:56.961Z,979.2
2017-08-19T00:18:59.248Z,979.2
2017-08-19T00:20:01.393Z,979.3
2017-08-19T00:21:03.541Z,979.3
2017-08-19T00:22:05.746Z,979.3
2017-08-19T00:23:08.143Z,979.3
2017-08-19T00:24:10.270Z,979.3
2017-08-19T00:25:12.538Z,979.4
2017-08-19T00:26:14.731Z,979.5
2017-08-19T00:27:16.860Z,979.6
2017-08-19T00:28:19.415Z,979.6
2017-08-19T00:29:21.577Z,979.6
2017-08-19T00:30:23.749Z,979.5
2017-08-19T00:31:25.879Z,979.4
2017-08-19T00:32:27.960Z,979.5
2017-08-19T00:33:30.402Z,979.5
2017-08-19T00:34:32.635Z,979.5
2017-08-19T00:35:35.052Z,979.5
2017-08-19T00:36:37.272Z,979.5
2017-08-19T00:37:39.504Z,979.5
2017-08-19T00:38:41.973Z,979.5
2017-08-19T00:39:44.135Z,979.5
2017-08-19T00:40:46.314Z,979.6
2017-08-19T00:41:48.531Z,979.6
2017-08-19T00:42:50.634Z,979.6
2017-08-19T00:43:53.131Z,979.6
2017-08-19T00:44:55.467Z,979.6
2017-08-19T00:45:57.644Z,979.6
2017-08-19T00:46:59.794Z,979.5
2017-08-19T00:48:01.930Z,979.6
2017-08-19T00:49:04.382Z,979.6
2017-08-19T00:50:06.509Z,979.5
2017-08-19T00:51:08.758Z,979.5
2017-08-19T00:52:10.870Z,979.6
2017-08-19T00:53:12.957Z,979.5
2017-08-19T00:54:15.412Z,979.5
2017-08-19T00:55:17.530Z,979.5
2017-08-19T00:56:19.691Z,979.5
2017-08-19T00:57:21.942Z,979.5
2017-08-19T00:58:24.075Z,979.5
2017-08-19T00:59:26.597Z,979.5
2017-08-19T01:00:28.777Z,979.5
2017-08-19T01:01:30.980Z,979.5
2017-08-19T01:02:33.159Z,979.6
2017-08-19T01:03:35.357Z,979.5
2017-08-19T01:04:37.781Z,979.6
2017-08-19T01:05:39.878Z,979.6
2017-08-19T01:06:42.047Z,979.6
2017-08-19T01:07:44.162Z,979.6
2017-08-19T01:08:46.311Z,979.7
2017-08-19T01:09:48.816Z,979.7
2017-08-19T01:10:51.006Z,979.7
2017-08-19T01:11:53.169Z,979.7
2017-08-19T01:12:55.492Z,979.7
2017-08-19T01:13:57.576Z,979.7
2017-08-19T01:14:59.934Z,979.7
2017-08-19T01:16:02.067Z,979.7
2017-08-19T01:17:04.179Z,979.7
2017-08-19T01:18:06.291Z,979.6
2017-08-19T01:19:08.425Z,979.6
2017-08-19T01:20:10.955Z,979.7
2017-08-19T01:21:13.068Z,979.7
2017-08-19T01:22:15.171Z,979.7
2017-08-19T01:23:17.292Z,979.6
2017-08-19T01:24:19.580Z,979.7
2017-08-19T01:25:22.120Z,979.7
2017-08-19T01:26:24.245Z,979.7
2017-08-19T01:27:26.408Z,979.7
2017-08-19T01:28:28.553Z,979.7
2017-08-19T01:29:30.714Z,979.8
2017-08-19T01:30:33.073Z,979.7
2017-08-19T01:31:35.220Z,979.7
2017-08-19T01:32:37.356Z,979.8
2017-08-19T01:33:39.480Z,979.8
2017-08-19T01:34:41.661Z,979.8
2017-08-19T01:35:44.092Z,979.8
2017-08-19T01:36:46.182Z,979.8
2017-08-19T01:37:48.247Z,979.8
2017-08-19T01:38:50.417Z,979.8
2017-08-19T01:39:52.511Z,979.8
2017-08-19T01:40:54.961Z,979.8
2017-08-19T01:41:57.180Z,979.9
2017-08-19T01:42:59.329Z,979.8
2017-08-19T01:44:01.440Z,979.8
2017-08-19T01:45:03.548Z,979.8
2017-08-19T01:46:05.946Z,979.8
2017-08-19T01:47:08.039Z,979.8
2017-08-19T01:48:10.140Z,979.9
2017-08-19T01:49:12.238Z,979.8
2017-08-19T01:50:14.445Z,979.9
2017-08-19T01:51:16.898Z,979.9
2017-08-19T01:52:19.027Z,979.9
2017-08-19T01:53:21.231Z,979.9
2017-08-19T01:54:23.335Z,979.9
2017-08-19T01:55:25.511Z,979.9
2017-08-19T01:56:27.958Z,980
2017-08-19T01:57:30.118Z,979.9
2017-08-19T01:58:32.263Z,980
2017-08-19T01:59:34.362Z,980
2017-08-19T02:00:36.560Z,980
2017-08-19T02:01:38.999Z,980
2017-08-19T02:02:41.181Z,980.1
2017-08-19T02:03:43.312Z,980
2017-08-19T02:04:45.412Z,980
2017-08-19T02:05:47.569Z,980
2017-08-19T02:06:49.962Z,980.1
2017-08-19T02:07:52.135Z,980.1
2017-08-19T02:08:54.190Z,980.1
2017-08-19T02:09:56.461Z,980.1
2017-08-19T02:10:58.603Z,980.1
2017-08-19T02:12:01.091Z,980.1
2017-08-19T02:13:03.174Z,980.1
2017-08-19T02:14:05.339Z,980.1
2017-08-19T02:15:07.438Z,980.1
2017-08-19T02:16:09.596Z,980.1
2017-08-19T02:17:12.034Z,980.1
2017-08-19T02:18:14.169Z,980.1
2017-08-19T02:19:16.313Z,980.2
2017-08-19T02:20:18.478Z,980.2
2017-08-19T02:21:20.542Z,980.1
2017-08-19T02:22:23.133Z,980.1
2017-08-19T02:23:25.230Z,980.1
2017-08-19T02:24:27.284Z,980.1
2017-08-19T02:25:29.480Z,980.1
2017-08-19T02:26:31.630Z,980.1
2017-08-19T02:27:34.035Z,980.1
2017-08-19T02:28:36.193Z,980
2017-08-19T02:29:38.332Z,980
2017-08-19T02:30:40.742Z,980.1
2017-08-19T02:31:42.844Z,980.1
2017-08-19T02:32:45.252Z,980.1
2017-08-19T02:33:47.328Z,980.1
2017-08-19T02:34:49.388Z,980
2017-08-19T02:35:51.557Z,980.1
2017-08-19T02:36:53.691Z,980.1
2017-08-19T02:37:56.186Z,980.1
2017-08-19T02:38:58.284Z,980.2
2017-08-19T02:40:00.424Z,980.1
2017-08-19T02:41:02.612Z,980.2
2017-08-19T02:42:04.821Z,980.2
2017-08-19T02:43:07.239Z,980.2
2017-08-19T02:44:09.386Z,980.2
2017-08-19T02:45:11.699Z,980.2
2017-08-19T02:46:13.755Z,980.1
2017-08-19T02:47:15.815Z,980.2
2017-08-19T02:48:18.218Z,980.2
2017-08-19T02:49:20.391Z,980.2
2017-08-19T02:50:22.561Z,980.2
2017-08-19T02:51:24.677Z,980.2
2017-08-19T02:52:26.851Z,980.2
2017-08-19T02:53:29.217Z,980.2
2017-08-19T02:54:31.390Z,980.2
2017-08-19T02:55:33.473Z,980.2
2017-08-19T02:56:35.634Z,980.2
2017-08-19T02:57:37.755Z,980.2
2017-08-19T02:58:40.214Z,980.2
2017-08-19T02:59:42.351Z,980.2
2017-08-19T03:00:44.442Z,980.2
2017-08-19T03:01:46.659Z,980.2
2017-08-19T03:02:48.822Z,980.2
2017-08-19T03:03:51.183Z,980.1
2017-08-19T03:04:53.349Z,980.2
2017-08-19T03:05:55.451Z,980.2
2017-08-19T03:06:57.593Z,980.2
2017-08-19T03:07:59.796Z,980.2
2017-08-19T03:09:02.329Z,980.2
2017-08-19T03:10:04.417Z,980.2
2017-08-19T03:11:06.610Z,980.3
2017-08-19T03:12:08.787Z,980.2
2017-08-19T03:13:10.900Z,980.2
2017-08-19T03:14:13.430Z,980.2
2017-08-19T03:15:15.504Z,980.3
2017-08-19T03:16:17.593Z,980.3
2017-08-19T03:17:19.808Z,980.2
2017-08-19T03:18:21.908Z,980.2
2017-08-19T03:19:24.418Z,980.2
2017-08-19T03:20:26.592Z,980.2
2017-08-19T03:21:28.773Z,980.2
2017-08-19T03:22:30.933Z,980.2
2017-08-19T03:23:33.176Z,980.2
2017-08-19T03:24:35.780Z,980.3
2017-08-19T03:25:37.931Z,980.2
2017-08-19T03:26:40.000Z,980.2
2017-08-19T03:27:42.152Z,980.2
2017-08-19T03:28:44.307Z,980.3
2017-08-19T03:29:46.719Z,980.3
2017-08-19T03:30:48.893Z,980.3
2017-08-19T03:31:50.977Z,980.3
2017-08-19T03:32:53.153Z,980.2
2017-08-19T03:33:55.286Z,980.3
2017-08-19T03:34:57.716Z,980.3
2017-08-19T03:35:59.874Z,980.3
2017-08-19T03:37:01.987Z,980.3
2017-08-19T03:38:05.142Z,980.3
2017-08-19T03:39:07.274Z,980.3
2017-08-19T03:40:09.676Z,980.3
2017-08-19T03:41:11.839Z,980.4
2017-08-19T03:42:14.035Z,980.4
2017-08-19T03:43:16.145Z,980.4
2017-08-19T03:44:18.271Z,980.5
2017-08-19T03:45:20.778Z,980.4
2017-08-19T03:46:22.916Z,980.5
2017-08-19T03:47:25.078Z,980.5
2017-08-19T03:48:27.226Z,980.5
2017-08-19T03:49:29.348Z,980.5
2017-08-19T03:50:31.837Z,980.5
2017-08-19T03:51:33.969Z,980.6
2017-08-19T03:52:36.100Z,980.5
2017-08-19T03:53:38.411Z,980.6
2017-08-19T03:54:41.095Z,980.6
2017-08-19T03:55:43.615Z,980.6
2017-08-19T03:56:45.850Z,980.6
2017-08-19T03:57:48.053Z,980.6
2017-08-19T03:58:50.157Z,980.6
2017-08-19T03:59:52.260Z,980.6
2017-08-19T04:00:54.735Z,980.6
2017-08-19T04:01:56.982Z,980.7
2017-08-19T04:02:59.063Z,980.7
2017-08-19T04:04:01.241Z,980.7
2017-08-19T04:05:03.429Z,980.6
2017-08-19T04:06:05.871Z,980.7
2017-08-19T04:07:07.971Z,980.7
2017-08-19T04:08:10.111Z,980.7
2017-08-19T04:09:12.337Z,980.7
2017-08-19T04:10:14.472Z,980.7
2017-08-19T04:11:16.993Z,980.8
2017-08-19T04:12:19.075Z,980.7
2017-08-19T04:13:21.161Z,980.7
2017-08-19T04:14:23.274Z,980.7
2017-08-19T04:15:25.417Z,980.7
2017-08-19T04:16:27.852Z,980.7
2017-08-19T04:17:29.938Z,980.7
2017-08-19T04:18:32.060Z,980.8
2017-08-19T04:19:34.210Z,980.7
2017-08-19T04:20:36.402Z,980.7
2017-08-19T04:21:38.828Z,980.7
2017-08-19T04:22:40.952Z,980.7
2017-08-19T04:23:43.136Z,980.7
2017-08-19T04:24:45.278Z,980.6
2017-08-19T04:25:47.492Z,980.7
2017-08-19T04:26:50.790Z,980.6
2017-08-19T04:27:52.958Z,980.6
2017-08-19T04:28:55.171Z,980.6
2017-08-19T04:29:57.289Z,980.6
2017-08-19T04:30:59.467Z,980.7
2017-08-19T04:32:02.128Z,980.7
2017-08-19T04:33:04.269Z,980.6
2017-08-19T04:34:06.360Z,980.6
2017-08-19T04:35:08.486Z,980.6
2017-08-19T04:36:10.607Z,980.6
2017-08-19T04:37:13.126Z,980.5
2017-08-19T04:38:15.247Z,980.6
2017-08-19T04:39:17.352Z,980.6
2017-08-19T04:40:19.510Z,980.6
2017-08-19T04:41:21.589Z,980.6
2017-08-19T04:42:24.004Z,980.6
2017-08-19T04:43:26.117Z,980.6
2017-08-19T04:44:28.255Z,980.7
2017-08-19T04:45:30.406Z,980.7
2017-08-19T04:46:32.537Z,980.6
2017-08-19T04:47:34.890Z,980.7
2017-08-19T04:48:37.081Z,980.6
2017-08-19T04:49:39.205Z,980.7
2017-08-19T04:50:41.303Z,980.7
2017-08-19T04:51:43.396Z,980.7
2017-08-19T04:52:45.871Z,980.7
2017-08-19T04:53:48.211Z,980.7
2017-08-19T04:54:50.301Z,980.7
2017-08-19T04:55:52.357Z,980.7
2017-08-19T04:56:54.520Z,980.7
2017-08-19T04:57:56.916Z,980.7
2017-08-19T04:58:59.038Z,980.7
2017-08-19T05:00:01.182Z,980.8
2017-08-19T05:01:03.301Z,980.8
2017-08-19T05:02:05.440Z,980.8
2017-08-19T05:03:07.930Z,980.8
2017-08-19T05:04:10.114Z,980.8
2017-08-19T05:05:12.297Z,980.9
2017-08-19T05:06:14.419Z,980.9
2017-08-19T05:07:16.554Z,980.9
2017-08-19T05:08:18.933Z,980.9
2017-08-19T05:09:21.101Z,980.9
2017-08-19T05:10:23.249Z,980.9
2017-08-19T05:11:25.410Z,980.8
2017-08-19T05:12:27.473Z,980.9
2017-08-19T05:13:29.911Z,980.9
2017-08-19T05:14:32.008Z,980.8
2017-08-19T05:15:34.076Z,980.9
2017-08-19T05:16:36.289Z,980.9
2017-08-19T05:17:38.362Z,980.9
2017-08-19T05:18:40.800Z,980.9
2017-08-19T05:19:42.946Z,980.9
2017-08-19T05:20:45.038Z,980.8
2017-08-19T05:21:47.166Z,980.8
2017-08-19T05:22:49.370Z,980.8
2017-08-19T05:23:51.818Z,980.8
2017-08-19T05:24:53.981Z,980.8
2017-08-19T05:25:56.128Z,980.8
2017-08-19T05:26:58.286Z,980.8
2017-08-19T05:28:00.400Z,980.8
2017-08-19T05:29:02.676Z,980.9
2017-08-19T05:30:04.851Z,980.8
2017-08-19T05:31:06.987Z,980.8
2017-08-19T05:32:09.052Z,980.9
2017-08-19T05:33:11.321Z,980.9
2017-08-19T05:34:13.697Z,980.9
2017-08-19T05:35:15.816Z,980.9
2017-08-19T05:36:17.964Z,980.9
2017-08-19T05:37:20.028Z,980.9
2017-08-19T05:38:22.074Z,980.9
2017-08-19T05:39:24.510Z,980.9
2017-08-19T05:40:26.673Z,980.9
2017-08-19T05:41:28.815Z,980.8
2017-08-19T05:42:30.959Z,980.8
2017-08-19T05:43:33.084Z,980.9
2017-08-19T05:44:35.550Z,980.9
2017-08-19T05:45:37.679Z,980.9
2017-08-19T05:46:39.797Z,980.8
2017-08-19T05:47:41.861Z,980.9
2017-08-19T05:48:43.961Z,980.9
2017-08-19T05:49:46.389Z,981
2017-08-19T05:50:48.427Z,980.9
2017-08-19T05:51:50.583Z,980.9
2017-08-19T05:52:52.741Z,980.9
2017-08-19T05:53:54.882Z,980.9
2017-08-19T05:54:57.566Z,980.9
2017-08-19T05:56:00.427Z,980.9
2017-08-19T05:57:02.602Z,980.9
2017-08-19T05:58:04.731Z,980.9
2017-08-19T05:59:06.819Z,980.9
2017-08-19T06:00:09.182Z,980.9
2017-08-19T06:01:11.345Z,980.9
2017-08-19T06:02:13.424Z,980.9
2017-08-19T06:03:15.584Z,980.9
2017-08-19T06:04:17.730Z,980.9
2017-08-19T06:05:20.119Z,980.9
2017-08-19T06:06:22.184Z,980.9
2017-08-19T06:07:24.258Z,980.9
2017-08-19T06:08:26.347Z,980.9
2017-08-19T06:09:28.539Z,980.9
2017-08-19T06:10:30.915Z,980.8
2017-08-19T06:11:33.071Z,980.9
2017-08-19T06:12:35.230Z,980.9
2017-08-19T06:13:37.349Z,980.9
2017-08-19T06:14:39.452Z,980.9
2017-08-19T06:15:41.873Z,980.9
2017-08-19T06:16:44.012Z,980.9
2017-08-19T06:17:46.188Z,980.9
2017-08-19T06:18:48.312Z,980.9
2017-08-19T06:19:50.431Z,980.9
2017-08-19T06:20:52.898Z,981
2017-08-19T06:21:54.981Z,980.9
2017-08-19T06:22:57.168Z,980.9
2017-08-19T06:23:59.279Z,981
2017-08-19T06:25:02.070Z,981
2017-08-19T06:26:04.352Z,981
2017-08-19T06:27:06.522Z,981.1
2017-08-19T06:28:08.713Z,981.1
2017-08-19T06:29:10.877Z,981
2017-08-19T06:30:12.950Z,981.1
2017-08-19T06:31:15.971Z,981.1
2017-08-19T06:32:18.045Z,981.1
2017-08-19T06:33:20.221Z,981.1
2017-08-19T06:34:22.401Z,981.1
2017-08-19T06:35:24.506Z,981.1
2017-08-19T06:36:26.932Z,981.1
2017-08-19T06:37:29.782Z,981.1
2017-08-19T06:38:31.923Z,981.1
2017-08-19T06:39:34.068Z,981.1
2017-08-19T06:40:36.176Z,981.1
2017-08-19T06:41:39.420Z,981.2
2017-08-19T06:42:41.550Z,981.2
2017-08-19T06:43:43.673Z,981.2
2017-08-19T06:44:45.813Z,981.3
2017-08-19T06:45:47.881Z,981.2
2017-08-19T06:46:50.425Z,981.3
2017-08-19T06:47:52.608Z,981.3
2017-08-19T06:48:54.706Z,981.2
2017-08-19T06:49:56.841Z,981.3
2017-08-19T06:50:59.048Z,981.3
2017-08-19T06:52:01.486Z,981.3
2017-08-19T06:53:03.583Z,981.3
2017-08-19T06:54:05.701Z,981.2
2017-08-19T06:55:09.122Z,981.2
2017-08-19T06:56:11.324Z,981.3
2017-08-19T06:57:13.731Z,981.3
2017-08-19T06:58:15.898Z,981.3
2017-08-19T06:59:17.985Z,981.3
2017-08-19T07:00:20.100Z,981.3
2017-08-19T07:01:22.158Z,981.3
2017-08-19T07:02:24.618Z,981.3
2017-08-19T07:03:26.649Z,981.4
2017-08-19T07:04:28.744Z,981.4
2017-08-19T07:05:30.900Z,981.4
2017-08-19T07:06:33.017Z,981.4
2017-08-19T07:07:35.465Z,981.4
2017-08-19T07:08:37.502Z,981.4
2017-08-19T07:09:39.572Z,981.4
2017-08-19T07:10:42.481Z,981.5
2017-08-19T07:11:44.607Z,981.5
2017-08-19T07:12:47.078Z,981.5
2017-08-19T07:13:49.219Z,981.5
2017-08-19T07:14:51.461Z,981.4
2017-08-19T07:15:53.541Z,981.4
2017-08-19T07:16:55.672Z,981.4
2017-08-19T07:17:58.116Z,981.4
2017-08-19T07:19:00.212Z,981.4
2017-08-19T07:20:02.359Z,981.4
2017-08-19T07:21:04.494Z,981.5
2017-08-19T07:22:06.648Z,981.4
2017-08-19T07:23:09.061Z,981.5
2017-08-19T07:24:11.210Z,981.5
2017-08-19T07:25:13.444Z,981.4
2017-08-19T07:26:15.623Z,981.5
2017-08-19T07:27:17.768Z,981.4
2017-08-19T07:28:20.177Z,981.5
2017-08-19T07:29:22.526Z,981.5
2017-08-19T07:30:24.607Z,981.5
2017-08-19T07:31:26.992Z,981.6
2017-08-19T07:32:30.058Z,981.6
2017-08-19T07:33:32.433Z,981.6
2017-08-19T07:34:34.578Z,981.6
2017-08-19T07:35:36.665Z,981.6
2017-08-19T07:36:38.686Z,981.6
2017-08-19T07:37:40.727Z,981.6
2017-08-19T07:38:43.244Z,981.6
2017-08-19T07:39:45.325Z,981.7
2017-08-19T07:40:47.436Z,981.6
2017-08-19T07:41:49.597Z,981.7
2017-08-19T07:42:51.718Z,981.6
2017-08-19T07:43:54.841Z,981.6
2017-08-19T07:44:57.672Z,981.7
2017-08-19T07:45:59.759Z,981.7
2017-08-19T07:47:01.975Z,981.7
2017-08-19T07:48:04.098Z,981.7
2017-08-19T07:49:06.686Z,981.6
2017-08-19T07:50:09.246Z,981.6
2017-08-19T07:51:11.321Z,981.7
2017-08-19T07:52:13.399Z,981.7
2017-08-19T07:53:15.562Z,981.7
2017-08-19T07:54:18.553Z,981.7
2017-08-19T07:55:20.731Z,981.7
2017-08-19T07:56:22.774Z,981.6
2017-08-19T07:57:24.844Z,981.7
2017-08-19T07:58:26.943Z,981.6
2017-08-19T07:59:29.357Z,981.6
2017-08-19T08:00:31.442Z,981.6
2017-08-19T08:01:33.564Z,981.6
2017-08-19T08:02:35.647Z,981.6
2017-08-19T08:03:38.466Z,981.6
2017-08-19T08:04:40.690Z,981.5
2017-08-19T08:05:44.007Z,981.6
2017-08-19T08:06:46.183Z,981.5
2017-08-19T08:07:48.326Z,981.5
2017-08-19T08:08:51.019Z,981.5
2017-08-19T08:09:53.721Z,981.5
2017-08-19T08:10:55.795Z,981.5
2017-08-19T08:11:57.887Z,981.6
2017-08-19T08:13:00.079Z,981.5
2017-08-19T08:14:02.178Z,981.5
2017-08-19T08:15:04.610Z,981.5
2017-08-19T08:16:06.677Z,981.5
2017-08-19T08:17:08.738Z,981.5
2017-08-19T08:18:10.848Z,981.4
2017-08-19T08:19:12.960Z,981.5
2017-08-19T08:20:15.290Z,981.5
2017-08-19T08:21:17.397Z,981.5
2017-08-19T08:22:19.455Z,981.4
2017-08-19T08:23:21.665Z,981.4
2017-08-19T08:24:23.775Z,981.5
2017-08-19T08:25:26.100Z,981.4
2017-08-19T08:26:28.252Z,981.4
2017-08-19T08:27:30.412Z,981.5
2017-08-19T08:28:32.455Z,981.5
2017-08-19T08:29:34.637Z,981.5
2017-08-19T08:30:37.402Z,981.6
2017-08-19T08:31:39.483Z,981.5
2017-08-19T08:32:41.567Z,981.5
2017-08-19T08:33:43.806Z,981.5
2017-08-19T08:34:46.774Z,981.4
2017-08-19T08:35:49.111Z,981.4
2017-08-19T08:36:51.184Z,981.5
2017-08-19T08:37:53.285Z,981.4
2017-08-19T08:38:55.390Z,981.5
2017-08-19T08:39:57.412Z,981.5
2017-08-19T08:40:59.762Z,981.5
2017-08-19T08:42:01.883Z,981.5
2017-08-19T08:43:05.309Z,981.5
2017-08-19T08:44:07.407Z,981.5
2017-08-19T08:45:09.530Z,981.5
2017-08-19T08:46:11.859Z,981.5
2017-08-19T08:47:14.059Z,981.5
2017-08-19T08:48:16.184Z,981.4
2017-08-19T08:49:18.351Z,981.5
2017-08-19T08:50:20.762Z,981.6
2017-08-19T08:51:23.089Z,981.5
2017-08-19T08:52:25.256Z,981.5
2017-08-19T08:53:27.384Z,981.5
2017-08-19T08:54:29.485Z,981.5
2017-08-19T08:55:32.117Z,981.5
2017-08-19T08:56:34.436Z,981.5
2017-08-19T08:57:36.562Z,981.5
2017-08-19T08:58:38.620Z,981.5
2017-08-19T08:59:40.752Z,981.4
2017-08-19T09:00:42.873Z,981.5
2017-08-19T09:01:45.133Z,981.5
2017-08-19T09:02:47.249Z,981.5
2017-08-19T09:03:49.360Z,981.5
2017-08-19T09:04:51.512Z,981.5
2017-08-19T09:05:53.575Z,981.5
2017-08-19T09:06:56.018Z,981.5
2017-08-19T09:07:58.152Z,981.5
2017-08-19T09:09:00.243Z,981.5
2017-08-19T09:10:02.422Z,981.5
2017-08-19T09:11:04.593Z,981.6
2017-08-19T09:12:06.925Z,981.5
2017-08-19T09:13:09.066Z,981.5
2017-08-19T09:14:11.195Z,981.5
2017-08-19T09:15:13.267Z,981.5
2017-08-19T09:16:15.368Z,981.4
2017-08-19T09:17:17.705Z,981.5
2017-08-19T09:18:19.908Z,981.5
2017-08-19T09:19:22.590Z,981.6
2017-08-19T09:20:24.685Z,981.5
2017-08-19T09:21:26.801Z,981.5
2017-08-19T09:22:29.157Z,981.5
2017-08-19T09:23:31.259Z,981.5
2017-08-19T09:24:33.382Z,981.6
2017-08-19T09:25:35.528Z,981.6
2017-08-19T09:26:37.631Z,981.6
2017-08-19T09:27:39.949Z,981.6
2017-08-19T09:28:42.043Z,981.6
2017-08-19T09:29:44.159Z,981.6
2017-08-19T09:30:46.250Z,981.8
2017-08-19T09:31:48.370Z,981.7
2017-08-19T09:32:50.774Z,981.6
2017-08-19T09:33:53.184Z,981.6
2017-08-19T09:34:55.278Z,981.7
2017-08-19T09:35:57.427Z,981.7
2017-08-19T09:36:59.507Z,981.7
2017-08-19T09:38:01.786Z,981.7
2017-08-19T09:39:03.923Z,981.6
2017-08-19T09:40:06.007Z,981.7
2017-08-19T09:41:08.129Z,981.7
2017-08-19T09:42:10.194Z,981.6
2017-08-19T09:43:12.571Z,981.7
2017-08-19T09:44:14.643Z,981.7
2017-08-19T09:45:16.726Z,981.7
2017-08-19T09:46:18.854Z,981.7
2017-08-19T09:47:20.962Z,981.7
2017-08-19T09:48:23.257Z,981.7
2017-08-19T09:49:25.355Z,981.6
2017-08-19T09:50:27.418Z,981.7
2017-08-19T09:51:29.510Z,981.8
2017-08-19T09:52:31.640Z,981.7
2017-08-19T09:53:34.687Z,981.8
2017-08-19T09:54:36.815Z,981.7
2017-08-19T09:55:38.908Z,981.8
2017-08-19T09:56:41.038Z,981.8
2017-08-19T09:57:43.098Z,981.8
2017-08-19T09:58:45.463Z,981.8
2017-08-19T09:59:47.486Z,981.8
2017-08-19T10:00:49.637Z,981.8
2017-08-19T10:01:51.758Z,981.8
2017-08-19T10:02:53.827Z,981.8
2017-08-19T10:03:56.199Z,981.8
2017-08-19T10:04:58.361Z,981.8
2017-08-19T10:06:00.441Z,981.8
2017-08-19T10:07:02.574Z,981.8
2017-08-19T10:08:04.735Z,981.8
2017-08-19T10:09:07.173Z,981.8
2017-08-19T10:10:09.324Z,981.8
2017-08-19T10:11:11.439Z,981.8
2017-08-19T10:12:13.659Z,981.8
2017-08-19T10:13:15.740Z,981.8
2017-08-19T10:14:18.272Z,981.9
2017-08-19T10:15:20.470Z,981.8
2017-08-19T10:16:22.662Z,981.9
2017-08-19T10:17:24.870Z,981.8
2017-08-19T10:18:26.982Z,981.8
2017-08-19T10:19:29.252Z,981.9
2017-08-19T10:20:31.377Z,981.8
2017-08-19T10:21:33.481Z,981.8
2017-08-19T10:22:35.615Z,981.9
2017-08-19T10:23:37.767Z,981.9
2017-08-19T10:24:40.193Z,982
2017-08-19T10:25:42.289Z,981.9
2017-08-19T10:26:44.382Z,981.9
2017-08-19T10:27:46.521Z,982
2017-08-19T10:28:49.335Z,981.9
2017-08-19T10:29:51.705Z,981.9
2017-08-19T10:30:53.778Z,981.9
2017-08-19T10:31:55.987Z,981.9
2017-08-19T10:32:58.038Z,981.9
2017-08-19T10:34:00.173Z,981.9
2017-08-19T10:35:02.476Z,981.9
2017-08-19T10:36:04.594Z,981.8
2017-08-19T10:37:07.302Z,981.9
2017-08-19T10:38:09.471Z,981.9
2017-08-19T10:39:11.540Z,981.9
2017-08-19T10:40:13.798Z,981.9
2017-08-19T10:41:15.924Z,981.9
2017-08-19T10:42:18.141Z,981.9
2017-08-19T10:43:20.222Z,981.9
2017-08-19T10:44:22.356Z,981.9
2017-08-19T10:45:24.709Z,981.9
2017-08-19T10:46:26.811Z,982
2017-08-19T10:47:29.972Z,982
2017-08-19T10:48:32.026Z,981.9
2017-08-19T10:49:34.152Z,982.1
2017-08-19T10:50:36.464Z,982
2017-08-19T10:51:38.615Z,982
2017-08-19T10:52:40.710Z,982
2017-08-19T10:53:42.780Z,982
2017-08-19T10:54:44.865Z,982
2017-08-19T10:55:47.098Z,982
2017-08-19T10:56:49.261Z,981.9
2017-08-19T10:57:51.403Z,982
2017-08-19T10:58:53.580Z,982
2017-08-19T10:59:55.731Z,982
2017-08-19T11:00:58.125Z,982
2017-08-19T11:02:00.284Z,982
2017-08-19T11:03:02.361Z,982
2017-08-19T11:04:04.507Z,982
2017-08-19T11:05:06.643Z,982
2017-08-19T11:06:08.992Z,982.1
2017-08-19T11:07:11.131Z,982.1
2017-08-19T11:08:13.275Z,982.1
2017-08-19T11:09:15.404Z,982.1
2017-08-19T11:10:17.509Z,982
2017-08-19T11:11:20.241Z,982
2017-08-19T11:12:22.364Z,982.1
2017-08-19T11:13:24.437Z,982.1
2017-08-19T11:14:26.590Z,982.1
2017-08-19T11:15:28.717Z,982.1
2017-08-19T11:16:31.166Z,982.1
2017-08-19T11:17:33.611Z,982.1
2017-08-19T11:18:35.724Z,982.2
2017-08-19T11:19:37.814Z,982.1
2017-08-19T11:20:40.029Z,982.1
2017-08-19T11:21:43.931Z,982.1
2017-08-19T11:22:45.977Z,982.2
2017-08-19T11:23:48.116Z,982.2
2017-08-19T11:24:50.315Z,982.1
2017-08-19T11:25:52.496Z,982.2
2017-08-19T11:26:54.811Z,982.2
2017-08-19T11:27:57.561Z,982.1
2017-08-19T11:28:59.740Z,982.1
2017-08-19T11:30:02.540Z,982.2
2017-08-19T11:31:04.683Z,982.2
2017-08-19T11:32:07.063Z,982.3
2017-08-19T11:33:09.214Z,982.2
2017-08-19T11:34:11.339Z,982.2
2017-08-19T11:35:13.478Z,982.3
2017-08-19T11:36:15.746Z,982.2
2017-08-19T11:37:18.112Z,982.3
2017-08-19T11:38:20.216Z,982.3
2017-08-19T11:39:22.340Z,982.3
2017-08-19T11:40:24.464Z,982.3
2017-08-19T11:41:26.588Z,982.3
2017-08-19T11:42:29.033Z,982.3
2017-08-19T11:43:31.170Z,982.3
2017-08-19T11:44:33.390Z,982.3
2017-08-19T11:45:35.468Z,982.3
2017-08-19T11:46:37.569Z,982.4
2017-08-19T11:47:39.991Z,982.3
2017-08-19T11:48:42.134Z,982.3
2017-08-19T11:49:44.264Z,982.4
2017-08-19T11:50:46.349Z,982.4
2017-08-19T11:51:48.475Z,982.3
2017-08-19T11:52:50.800Z,982.3
2017-08-19T11:53:52.995Z,982.3
2017-08-19T11:54:55.060Z,982.4
2017-08-19T11:55:57.224Z,982.4
2017-08-19T11:56:59.365Z,982.4
2017-08-19T11:58:02.527Z,982.3
2017-08-19T11:59:04.631Z,982.3
2017-08-19T12:00:06.749Z,982.3
2017-08-19T12:01:08.862Z,982.4
2017-08-19T12:02:11.024Z,982.4
2017-08-19T12:03:13.405Z,982.3
2017-08-19T12:04:16.090Z,982.3
2017-08-19T12:05:18.177Z,982.4
2017-08-19T12:06:20.290Z,982.3
2017-08-19T12:07:22.426Z,982.3
2017-08-19T12:08:25.581Z,982.3
2017-08-19T12:09:27.733Z,982.2
2017-08-19T12:10:30.793Z,982.3
2017-08-19T12:11:32.952Z,982.3
2017-08-19T12:12:35.069Z,982.3
2017-08-19T12:13:38.168Z,982.4
2017-08-19T12:14:40.338Z,982.3
2017-08-19T12:15:42.487Z,982.3
2017-08-19T12:16:44.618Z,982.3
2017-08-19T12:17:46.981Z,982.2
2017-08-19T12:18:49.429Z,982.2
2017-08-19T12:19:51.562Z,982.3
2017-08-19T12:20:53.747Z,982.3
2017-08-19T12:21:55.873Z,982.3
2017-08-19T12:22:58.038Z,982.3
2017-08-19T12:24:00.492Z,982.3
2017-08-19T12:25:02.680Z,982.2
2017-08-19T12:26:04.859Z,982.2
2017-08-19T12:27:07.039Z,982.3
2017-08-19T12:28:09.170Z,982.3
2017-08-19T12:29:11.556Z,982.3
2017-08-19T12:30:13.800Z,982.3
2017-08-19T12:31:15.925Z,982.3
2017-08-19T12:32:18.727Z,982.3
2017-08-19T12:33:20.824Z,982.3
2017-08-19T12:34:23.252Z,982.4
2017-08-19T12:35:25.435Z,982.4
2017-08-19T12:36:27.546Z,982.3
2017-08-19T12:37:30.318Z,982.4
2017-08-19T12:38:32.499Z,982.3
2017-08-19T12:39:34.819Z,982.3
2017-08-19T12:40:36.948Z,982.3
2017-08-19T12:41:39.084Z,982.3
2017-08-19T12:42:41.188Z,982.4
2017-08-19T12:43:43.342Z,982.3
2017-08-19T12:44:45.651Z,982.4
2017-08-19T12:45:47.863Z,982.3
2017-08-19T12:46:50.042Z,982.4
2017-08-19T12:47:52.252Z,982.4
2017-08-19T12:48:54.422Z,982.3
2017-08-19T12:49:56.813Z,982.3
2017-08-19T12:50:58.998Z,982.4
2017-08-19T12:52:01.206Z,982.5
2017-08-19T12:53:05.398Z,982.4
2017-08-19T12:54:07.476Z,982.3
2017-08-19T12:55:09.830Z,982.4
2017-08-19T12:56:11.954Z,982.3
2017-08-19T12:57:14.106Z,982.4
2017-08-19T12:58:16.248Z,982.4
2017-08-19T12:59:19.138Z,982.4
2017-08-19T13:00:21.485Z,982.4
2017-08-19T13:01:23.596Z,982.4
2017-08-19T13:02:25.790Z,982.3
2017-08-19T13:03:27.928Z,982.3
2017-08-19T13:04:30.119Z,982.4
2017-08-19T13:05:32.522Z,982.4
2017-08-19T13:06:34.711Z,982.4
2017-08-19T13:07:36.791Z,982.4
2017-08-19T13:08:38.921Z,982.4
2017-08-19T13:09:41.118Z,982.3
2017-08-19T13:10:43.498Z,982.4
2017-08-19T13:11:45.654Z,982.3
2017-08-19T13:12:47.863Z,982.3
2017-08-19T13:13:50.173Z,982.4
2017-08-19T13:14:52.346Z,982.3
2017-08-19T13:15:54.673Z,982.3
2017-08-19T13:16:56.807Z,982.3
2017-08-19T13:17:58.957Z,982.3
2017-08-19T13:19:01.115Z,982.3
2017-08-19T13:20:03.282Z,982.3
2017-08-19T13:21:05.690Z,982.2
2017-08-19T13:22:07.831Z,982.4
2017-08-19T13:23:10.012Z,982.3
2017-08-19T13:24:14.139Z,982.4